logo
Rechercher aéroport 
image banner adimage banner adimage banner ad
image banner ad

FA0504 - Tankwa Karoo Airfield

Situé à , South Africa

ICAO - , IATA -

Données fournies par Airmate  

Information générale

Coordonnées: S32°20'3" E19°45'13"
Élévation : 1037 feet MSL.
 
Voir autres Aéroports à Western Cape

Données opérationnelles

Special qualification required
Heure actuelle UTC:
Heure actuelle locale:
Météo à : - ( 0 km )
METAR: KAFP 172351Z AUTO 12003KT 10SM OVC100 24/21 A2985 RMK AO2 T02370205 10270 20237
Voir NOTAMs / SUP AIP / TFR affectant cet aéroport [VIEW]
Fréquences de communication: [VIEW]

Pistes:

Coordonnées de l'aéroport

Adresse: South Africa

Vue satellite de FA0504